sensor_id;sensor_type;location;lat;lon;timestamp;P1;durP1;ratioP1;P2;durP2;ratioP2
71963;SDS011;59834;52.124;5.422;2023-04-24T00:01:04;0.40;;;0.20;;
71963;SDS011;59834;52.124;5.422;2023-04-24T00:03:33;0.55;;;0.10;;
71963;SDS011;59834;52.124;5.422;2023-04-24T00:06:01;1.42;;;0.10;;
71963;SDS011;59834;52.124;5.422;2023-04-24T00:08:28;1.47;;;0.13;;
71963;SDS011;59834;52.124;5.422;2023-04-24T00:10:55;0.60;;;0.17;;
71963;SDS011;59834;52.124;5.422;2023-04-24T00:13:21;0.60;;;0.10;;
71963;SDS011;59834;52.124;5.422;2023-04-24T00:15:48;0.38;;;0.10;;
71963;SDS011;59834;52.124;5.422;2023-04-24T00:18:15;1.17;;;0.20;;
71963;SDS011;59834;52.124;5.422;2023-04-24T00:20:41;0.70;;;0.20;;
71963;SDS011;59834;52.124;5.422;2023-04-24T00:23:09;1.75;;;0.20;;
71963;SDS011;59834;52.124;5.422;2023-04-24T00:25:36;1.77;;;0.13;;
71963;SDS011;59834;52.124;5.422;2023-04-24T00:28:02;0.95;;;0.20;;
71963;SDS011;59834;52.124;5.422;2023-04-24T00:30:29;0.65;;;0.20;;
71963;SDS011;59834;52.124;5.422;2023-04-24T00:32:55;0.87;;;0.20;;
71963;SDS011;59834;52.124;5.422;2023-04-24T00:35:23;1.83;;;0.35;;
71963;SDS011;59834;52.124;5.422;2023-04-24T00:37:49;0.75;;;0.20;;
71963;SDS011;59834;52.124;5.422;2023-04-24T00:40:16;1.00;;;0.20;;
71963;SDS011;59834;52.124;5.422;2023-04-24T00:42:43;0.80;;;0.30;;
71963;SDS011;59834;52.124;5.422;2023-04-24T00:45:10;0.98;;;0.20;;
71963;SDS011;59834;52.124;5.422;2023-04-24T00:47:37;1.00;;;0.30;;
71963;SDS011;59834;52.124;5.422;2023-04-24T00:50:04;0.80;;;0.30;;
71963;SDS011;59834;52.124;5.422;2023-04-24T00:52:32;0.98;;;0.30;;
71963;SDS011;59834;52.124;5.422;2023-04-24T00:54:59;0.90;;;0.30;;
71963;SDS011;59834;52.124;5.422;2023-04-24T00:57:26;2.07;;;0.50;;
71963;SDS011;59834;52.124;5.422;2023-04-24T00:59:52;1.50;;;0.47;;
71963;SDS011;59834;52.124;5.422;2023-04-24T01:02:19;0.70;;;0.30;;
71963;SDS011;59834;52.124;5.422;2023-04-24T01:04:49;0.80;;;0.30;;
71963;SDS011;59834;52.124;5.422;2023-04-24T01:07:20;2.67;;;0.77;;
71963;SDS011;59834;52.124;5.422;2023-04-24T01:09:47;2.90;;;0.70;;
71963;SDS011;59834;52.124;5.422;2023-04-24T01:12:17;1.27;;;0.50;;
71963;SDS011;59834;52.124;5.422;2023-04-24T01:14:44;2.45;;;0.77;;
71963;SDS011;59834;52.124;5.422;2023-04-24T01:17:11;2.47;;;0.95;;
71963;SDS011;59834;52.124;5.422;2023-04-24T01:19:39;2.22;;;0.70;;
71963;SDS011;59834;52.124;5.422;2023-04-24T01:22:10;2.60;;;0.60;;
71963;SDS011;59834;52.124;5.422;2023-04-24T01:24:39;1.90;;;0.80;;
71963;SDS011;59834;52.124;5.422;2023-04-24T01:27:06;1.95;;;0.70;;
71963;SDS011;59834;52.124;5.422;2023-04-24T01:29:34;3.17;;;0.70;;
71963;SDS011;59834;52.124;5.422;2023-04-24T01:32:01;2.83;;;0.75;;
71963;SDS011;59834;52.124;5.422;2023-04-24T01:34:29;1.37;;;0.60;;
71963;SDS011;59834;52.124;5.422;2023-04-24T01:36:56;1.63;;;0.60;;
71963;SDS011;59834;52.124;5.422;2023-04-24T01:39:22;3.15;;;1.10;;
71963;SDS011;59834;52.124;5.422;2023-04-24T01:41:54;1.17;;;0.70;;
71963;SDS011;59834;52.124;5.422;2023-04-24T01:44:21;1.42;;;0.82;;
71963;SDS011;59834;52.124;5.422;2023-04-24T01:46:48;3.80;;;1.40;;
71963;SDS011;59834;52.124;5.422;2023-04-24T01:49:14;2.92;;;1.65;;
71963;SDS011;59834;52.124;5.422;2023-04-24T01:51:41;2.80;;;1.48;;
71963;SDS011;59834;52.124;5.422;2023-04-24T01:54:08;2.03;;;1.40;;
71963;SDS011;59834;52.124;5.422;2023-04-24T01:56:34;4.97;;;1.60;;
71963;SDS011;59834;52.124;5.422;2023-04-24T01:59:02;3.13;;;1.60;;
71963;SDS011;59834;52.124;5.422;2023-04-24T02:01:34;5.30;;;1.60;;
71963;SDS011;59834;52.124;5.422;2023-04-24T02:04:04;2.65;;;1.45;;
71963;SDS011;59834;52.124;5.422;2023-04-24T02:06:31;3.55;;;1.00;;
71963;SDS011;59834;52.124;5.422;2023-04-24T02:08:58;1.90;;;1.20;;
71963;SDS011;59834;52.124;5.422;2023-04-24T02:11:25;2.35;;;1.15;;
71963;SDS011;59834;52.124;5.422;2023-04-24T02:13:52;1.75;;;1.20;;
71963;SDS011;59834;52.124;5.422;2023-04-24T02:16:19;2.63;;;1.23;;
71963;SDS011;59834;52.124;5.422;2023-04-24T02:18:46;2.42;;;1.10;;
71963;SDS011;59834;52.124;5.422;2023-04-24T02:21:12;4.40;;;1.38;;
71963;SDS011;59834;52.124;5.422;2023-04-24T02:23:39;2.30;;;1.07;;
71963;SDS011;59834;52.124;5.422;2023-04-24T02:26:05;2.63;;;1.42;;
71963;SDS011;59834;52.124;5.422;2023-04-24T02:28:32;3.75;;;1.00;;
71963;SDS011;59834;52.124;5.422;2023-04-24T02:30:58;3.65;;;0.85;;
71963;SDS011;59834;52.124;5.422;2023-04-24T02:33:26;3.03;;;1.02;;
71963;SDS011;59834;52.124;5.422;2023-04-24T02:35:52;2.57;;;1.00;;
71963;SDS011;59834;52.124;5.422;2023-04-24T02:38:19;1.75;;;1.10;;
71963;SDS011;59834;52.124;5.422;2023-04-24T02:40:46;1.63;;;0.95;;
71963;SDS011;59834;52.124;5.422;2023-04-24T02:43:12;2.33;;;1.10;;
71963;SDS011;59834;52.124;5.422;2023-04-24T02:45:39;1.98;;;1.20;;
71963;SDS011;59834;52.124;5.422;2023-04-24T02:48:05;2.30;;;1.37;;
71963;SDS011;59834;52.124;5.422;2023-04-24T02:50:32;1.92;;;1.17;;
71963;SDS011;59834;52.124;5.422;2023-04-24T02:52:59;2.45;;;1.30;;
71963;SDS011;59834;52.124;5.422;2023-04-24T02:55:26;2.53;;;1.83;;
71963;SDS011;59834;52.124;5.422;2023-04-24T02:57:53;2.30;;;1.60;;
71963;SDS011;59834;52.124;5.422;2023-04-24T03:00:19;2.60;;;1.23;;
71963;SDS011;59834;52.124;5.422;2023-04-24T03:02:46;2.55;;;1.27;;
71963;SDS011;59834;52.124;5.422;2023-04-24T03:05:13;2.33;;;1.40;;
71963;SDS011;59834;52.124;5.422;2023-04-24T03:07:39;4.32;;;1.65;;
71963;SDS011;59834;52.124;5.422;2023-04-24T03:10:06;1.88;;;1.08;;
71963;SDS011;59834;52.124;5.422;2023-04-24T03:12:34;2.13;;;1.23;;
71963;SDS011;59834;52.124;5.422;2023-04-24T03:15:01;3.75;;;1.48;;
71963;SDS011;59834;52.124;5.422;2023-04-24T03:17:27;2.05;;;1.33;;
71963;SDS011;59834;52.124;5.422;2023-04-24T03:19:53;6.22;;;1.77;;
71963;SDS011;59834;52.124;5.422;2023-04-24T03:22:20;2.10;;;0.85;;
71963;SDS011;59834;52.124;5.422;2023-04-24T03:24:46;1.80;;;1.20;;
71963;SDS011;59834;52.124;5.422;2023-04-24T03:27:13;5.13;;;1.27;;
71963;SDS011;59834;52.124;5.422;2023-04-24T03:29:40;2.33;;;1.15;;
71963;SDS011;59834;52.124;5.422;2023-04-24T03:32:06;2.03;;;1.15;;
71963;SDS011;59834;52.124;5.422;2023-04-24T03:34:33;2.00;;;1.05;;
71963;SDS011;59834;52.124;5.422;2023-04-24T03:36:59;2.23;;;1.10;;
71963;SDS011;59834;52.124;5.422;2023-04-24T03:39:26;5.13;;;1.77;;
71963;SDS011;59834;52.124;5.422;2023-04-24T03:41:53;3.15;;;2.00;;
71963;SDS011;59834;52.124;5.422;2023-04-24T03:44:20;1.92;;;1.15;;
71963;SDS011;59834;52.124;5.422;2023-04-24T03:46:46;3.65;;;1.38;;
71963;SDS011;59834;52.124;5.422;2023-04-24T03:49:13;2.50;;;1.33;;
71963;SDS011;59834;52.124;5.422;2023-04-24T03:51:40;2.90;;;1.58;;
71963;SDS011;59834;52.124;5.422;2023-04-24T03:54:06;2.47;;;1.67;;
71963;SDS011;59834;52.124;5.422;2023-04-24T03:56:33;2.50;;;1.30;;
71963;SDS011;59834;52.124;5.422;2023-04-24T03:58:59;3.17;;;1.90;;
71963;SDS011;59834;52.124;5.422;2023-04-24T04:01:26;2.57;;;1.40;;
71963;SDS011;59834;52.124;5.422;2023-04-24T04:03:54;5.03;;;1.50;;
71963;SDS011;59834;52.124;5.422;2023-04-24T04:06:21;3.53;;;1.58;;
71963;SDS011;59834;52.124;5.422;2023-04-24T04:08:48;2.70;;;0.90;;
71963;SDS011;59834;52.124;5.422;2023-04-24T04:11:14;2.25;;;1.35;;
71963;SDS011;59834;52.124;5.422;2023-04-24T04:13:41;2.93;;;1.17;;
71963;SDS011;59834;52.124;5.422;2023-04-24T04:16:08;2.17;;;1.65;;
71963;SDS011;59834;52.124;5.422;2023-04-24T04:18:35;2.17;;;1.45;;
71963;SDS011;59834;52.124;5.422;2023-04-24T04:21:01;2.17;;;1.08;;
71963;SDS011;59834;52.124;5.422;2023-04-24T04:23:28;2.75;;;1.30;;
71963;SDS011;59834;52.124;5.422;2023-04-24T04:25:54;2.20;;;1.30;;
71963;SDS011;59834;52.124;5.422;2023-04-24T04:28:21;4.30;;;1.83;;
71963;SDS011;59834;52.124;5.422;2023-04-24T04:30:47;2.42;;;1.20;;
71963;SDS011;59834;52.124;5.422;2023-04-24T04:33:14;3.58;;;1.75;;
71963;SDS011;59834;52.124;5.422;2023-04-24T04:35:40;3.40;;;1.60;;
71963;SDS011;59834;52.124;5.422;2023-04-24T04:38:07;4.70;;;1.87;;
71963;SDS011;59834;52.124;5.422;2023-04-24T04:40:34;3.55;;;2.20;;
71963;SDS011;59834;52.124;5.422;2023-04-24T04:43:01;3.78;;;2.03;;
71963;SDS011;59834;52.124;5.422;2023-04-24T04:45:27;4.47;;;2.33;;
71963;SDS011;59834;52.124;5.422;2023-04-24T04:47:54;5.43;;;2.95;;
71963;SDS011;59834;52.124;5.422;2023-04-24T04:50:21;3.38;;;2.22;;
71963;SDS011;59834;52.124;5.422;2023-04-24T04:52:49;3.08;;;2.15;;
71963;SDS011;59834;52.124;5.422;2023-04-24T04:55:15;5.68;;;1.90;;
71963;SDS011;59834;52.124;5.422;2023-04-24T04:57:42;2.63;;;1.30;;
71963;SDS011;59834;52.124;5.422;2023-04-24T05:00:08;3.33;;;1.80;;
71963;SDS011;59834;52.124;5.422;2023-04-24T05:02:36;2.70;;;1.60;;
71963;SDS011;59834;52.124;5.422;2023-04-24T05:05:03;2.22;;;1.30;;
71963;SDS011;59834;52.124;5.422;2023-04-24T05:07:30;4.88;;;1.50;;
71963;SDS011;59834;52.124;5.422;2023-04-24T05:09:57;3.30;;;1.70;;
71963;SDS011;59834;52.124;5.422;2023-04-24T05:12:23;2.60;;;1.50;;
71963;SDS011;59834;52.124;5.422;2023-04-24T05:14:50;3.50;;;1.90;;
71963;SDS011;59834;52.124;5.422;2023-04-24T05:17:16;2.40;;;1.65;;
71963;SDS011;59834;52.124;5.422;2023-04-24T05:19:43;5.47;;;2.20;;
71963;SDS011;59834;52.124;5.422;2023-04-24T05:22:11;4.88;;;1.80;;
71963;SDS011;59834;52.124;5.422;2023-04-24T05:24:38;3.92;;;2.20;;
71963;SDS011;59834;52.124;5.422;2023-04-24T05:27:04;2.60;;;1.63;;
71963;SDS011;59834;52.124;5.422;2023-04-24T05:29:31;1.88;;;0.70;;
71963;SDS011;59834;52.124;5.422;2023-04-24T05:31:59;2.40;;;0.90;;
71963;SDS011;59834;52.124;5.422;2023-04-24T05:34:26;2.08;;;0.80;;
71963;SDS011;59834;52.124;5.422;2023-04-24T05:36:53;2.50;;;0.98;;
71963;SDS011;59834;52.124;5.422;2023-04-24T05:39:20;2.25;;;0.70;;
71963;SDS011;59834;52.124;5.422;2023-04-24T05:41:46;1.90;;;0.90;;
71963;SDS011;59834;52.124;5.422;2023-04-24T05:44:13;2.95;;;1.10;;
71963;SDS011;59834;52.124;5.422;2023-04-24T05:46:39;2.10;;;1.08;;
71963;SDS011;59834;52.124;5.422;2023-04-24T05:49:06;2.22;;;1.00;;
71963;SDS011;59834;52.124;5.422;2023-04-24T05:51:32;2.90;;;1.00;;
71963;SDS011;59834;52.124;5.422;2023-04-24T05:53:59;4.30;;;1.65;;
71963;SDS011;59834;52.124;5.422;2023-04-24T05:56:25;4.57;;;1.02;;
71963;SDS011;59834;52.124;5.422;2023-04-24T05:58:52;2.50;;;1.35;;
71963;SDS011;59834;52.124;5.422;2023-04-24T06:01:18;1.77;;;0.70;;
71963;SDS011;59834;52.124;5.422;2023-04-24T06:03:45;4.87;;;1.20;;
71963;SDS011;59834;52.124;5.422;2023-04-24T06:06:12;3.15;;;1.05;;
71963;SDS011;59834;52.124;5.422;2023-04-24T06:08:39;3.78;;;1.27;;
71963;SDS011;59834;52.124;5.422;2023-04-24T06:11:06;1.73;;;0.70;;
71963;SDS011;59834;52.124;5.422;2023-04-24T06:13:32;1.67;;;0.60;;
71963;SDS011;59834;52.124;5.422;2023-04-24T06:15:59;2.30;;;0.40;;
71963;SDS011;59834;52.124;5.422;2023-04-24T06:18:26;2.10;;;0.40;;
71963;SDS011;59834;52.124;5.422;2023-04-24T06:20:52;3.05;;;0.20;;
71963;SDS011;59834;52.124;5.422;2023-04-24T06:23:19;1.25;;;0.20;;
71963;SDS011;59834;52.124;5.422;2023-04-24T06:25:46;0.65;;;0.10;;
71963;SDS011;59834;52.124;5.422;2023-04-24T06:28:13;0.68;;;0.00;;
71963;SDS011;59834;52.124;5.422;2023-04-24T06:30:39;0.45;;;0.10;;
71963;SDS011;59834;52.124;5.422;2023-04-24T06:33:05;4.93;;;0.10;;
71963;SDS011;59834;52.124;5.422;2023-04-24T06:35:46;0.25;;;0.05;;
71963;SDS011;59834;52.124;5.422;2023-04-24T06:38:12;1.55;;;0.20;;
71963;SDS011;59834;52.124;5.422;2023-04-24T06:40:39;2.47;;;0.10;;
71963;SDS011;59834;52.124;5.422;2023-04-24T06:43:06;3.50;;;0.20;;
71963;SDS011;59834;52.124;5.422;2023-04-24T06:45:32;1.55;;;0.30;;
71963;SDS011;59834;52.124;5.422;2023-04-24T06:47:59;2.40;;;0.68;;
71963;SDS011;59834;52.124;5.422;2023-04-24T06:50:26;2.60;;;1.52;;
71963;SDS011;59834;52.124;5.422;2023-04-24T06:52:52;4.87;;;2.00;;
71963;SDS011;59834;52.124;5.422;2023-04-24T06:55:19;3.17;;;1.83;;
71963;SDS011;59834;52.124;5.422;2023-04-24T06:57:45;7.55;;;3.08;;
71963;SDS011;59834;52.124;5.422;2023-04-24T07:00:12;10.35;;;3.83;;
71963;SDS011;59834;52.124;5.422;2023-04-24T07:02:39;5.00;;;3.10;;
71963;SDS011;59834;52.124;5.422;2023-04-24T07:05:05;4.43;;;2.80;;
71963;SDS011;59834;52.124;5.422;2023-04-24T07:07:34;9.18;;;3.00;;
71963;SDS011;59834;52.124;5.422;2023-04-24T07:10:04;5.53;;;3.78;;
71963;SDS011;59834;52.124;5.422;2023-04-24T07:12:31;8.55;;;3.83;;
71963;SDS011;59834;52.124;5.422;2023-04-24T07:14:59;10.38;;;3.78;;
71963;SDS011;59834;52.124;5.422;2023-04-24T07:17:26;9.65;;;3.92;;
71963;SDS011;59834;52.124;5.422;2023-04-24T07:19:53;7.03;;;3.35;;
71963;SDS011;59834;52.124;5.422;2023-04-24T07:22:19;8.90;;;3.63;;
71963;SDS011;59834;52.124;5.422;2023-04-24T07:24:46;7.43;;;4.45;;
71963;SDS011;59834;52.124;5.422;2023-04-24T07:27:12;15.13;;;4.55;;
71963;SDS011;59834;52.124;5.422;2023-04-24T07:29:41;12.30;;;3.67;;
71963;SDS011;59834;52.124;5.422;2023-04-24T07:32:08;7.60;;;2.42;;
71963;SDS011;59834;52.124;5.422;2023-04-24T07:34:35;10.65;;;3.83;;
71963;SDS011;59834;52.124;5.422;2023-04-24T07:37:01;7.82;;;2.83;;
71963;SDS011;59834;52.124;5.422;2023-04-24T07:39:28;5.70;;;2.65;;
71963;SDS011;59834;52.124;5.422;2023-04-24T07:41:55;6.07;;;3.07;;
71963;SDS011;59834;52.124;5.422;2023-04-24T07:44:22;7.03;;;2.85;;
71963;SDS011;59834;52.124;5.422;2023-04-24T07:46:48;9.32;;;2.75;;
71963;SDS011;59834;52.124;5.422;2023-04-24T07:49:15;5.47;;;3.22;;
71963;SDS011;59834;52.124;5.422;2023-04-24T07:51:45;10.63;;;3.30;;
71963;SDS011;59834;52.124;5.422;2023-04-24T07:54:11;15.30;;;3.30;;
71963;SDS011;59834;52.124;5.422;2023-04-24T07:56:38;10.20;;;3.15;;
71963;SDS011;59834;52.124;5.422;2023-04-24T07:59:05;10.05;;;3.55;;
71963;SDS011;59834;52.124;5.422;2023-04-24T08:01:32;12.88;;;3.78;;
71963;SDS011;59834;52.124;5.422;2023-04-24T08:03:58;7.82;;;3.50;;
71963;SDS011;59834;52.124;5.422;2023-04-24T08:06:26;5.57;;;3.07;;
71963;SDS011;59834;52.124;5.422;2023-04-24T08:08:57;8.90;;;3.33;;
71963;SDS011;59834;52.124;5.422;2023-04-24T08:11:24;7.65;;;3.20;;
71963;SDS011;59834;52.124;5.422;2023-04-24T08:13:51;6.50;;;3.47;;
71963;SDS011;59834;52.124;5.422;2023-04-24T08:16:18;10.32;;;3.20;;
71963;SDS011;59834;52.124;5.422;2023-04-24T08:18:45;8.43;;;3.23;;
71963;SDS011;59834;52.124;5.422;2023-04-24T08:21:11;5.93;;;1.85;;
71963;SDS011;59834;52.124;5.422;2023-04-24T08:23:43;5.88;;;1.63;;
71963;SDS011;59834;52.124;5.422;2023-04-24T08:26:11;7.25;;;2.28;;
71963;SDS011;59834;52.124;5.422;2023-04-24T08:28:38;5.40;;;0.85;;
71963;SDS011;59834;52.124;5.422;2023-04-24T08:31:04;5.23;;;1.00;;
71963;SDS011;59834;52.124;5.422;2023-04-24T08:33:31;6.35;;;0.82;;
71963;SDS011;59834;52.124;5.422;2023-04-24T08:36:04;4.22;;;0.90;;
71963;SDS011;59834;52.124;5.422;2023-04-24T08:38:32;11.15;;;0.75;;
71963;SDS011;59834;52.124;5.422;2023-04-24T08:41:00;7.35;;;1.38;;
71963;SDS011;59834;52.124;5.422;2023-04-24T08:43:27;4.50;;;0.57;;
71963;SDS011;59834;52.124;5.422;2023-04-24T08:45:55;9.30;;;0.80;;
71963;SDS011;59834;52.124;5.422;2023-04-24T08:48:23;9.90;;;0.98;;
71963;SDS011;59834;52.124;5.422;2023-04-24T08:50:57;11.68;;;0.93;;
71963;SDS011;59834;52.124;5.422;2023-04-24T08:53:26;7.18;;;0.60;;
71963;SDS011;59834;52.124;5.422;2023-04-24T08:55:54;9.83;;;0.60;;
71963;SDS011;59834;52.124;5.422;2023-04-24T08:58:25;16.67;;;1.27;;
71963;SDS011;59834;52.124;5.422;2023-04-24T09:00:56;7.90;;;0.85;;
71963;SDS011;59834;52.124;5.422;2023-04-24T09:03:23;8.18;;;0.52;;
71963;SDS011;59834;52.124;5.422;2023-04-24T09:05:52;11.30;;;1.10;;
71963;SDS011;59834;52.124;5.422;2023-04-24T09:08:20;8.53;;;0.57;;
71963;SDS011;59834;52.124;5.422;2023-04-24T09:10:51;9.85;;;0.63;;
71963;SDS011;59834;52.124;5.422;2023-04-24T09:13:18;6.03;;;1.10;;
71963;SDS011;59834;52.124;5.422;2023-04-24T09:15:46;10.90;;;0.85;;
71963;SDS011;59834;52.124;5.422;2023-04-24T09:18:14;7.75;;;0.90;;
71963;SDS011;59834;52.124;5.422;2023-04-24T09:20:57;4.70;;;0.20;;
71963;SDS011;59834;52.124;5.422;2023-04-24T09:23:31;5.63;;;0.50;;
71963;SDS011;59834;52.124;5.422;2023-04-24T09:25:58;3.80;;;0.40;;
71963;SDS011;59834;52.124;5.422;2023-04-24T09:31:07;8.77;;;0.43;;
71963;SDS011;59834;52.124;5.422;2023-04-24T09:33:35;6.47;;;0.60;;
71963;SDS011;59834;52.124;5.422;2023-04-24T09:36:03;7.53;;;0.65;;
71963;SDS011;59834;52.124;5.422;2023-04-24T09:41:07;9.77;;;0.80;;
71963;SDS011;59834;52.124;5.422;2023-04-24T09:43:34;13.63;;;0.55;;
71963;SDS011;59834;52.124;5.422;2023-04-24T09:46:05;7.47;;;0.60;;
71963;SDS011;59834;52.124;5.422;2023-04-24T09:48:37;4.72;;;0.60;;
71963;SDS011;59834;52.124;5.422;2023-04-24T09:51:04;6.57;;;0.82;;
71963;SDS011;59834;52.124;5.422;2023-04-24T09:53:37;5.95;;;0.60;;
71963;SDS011;59834;52.124;5.422;2023-04-24T09:56:09;5.10;;;1.15;;
71963;SDS011;59834;52.124;5.422;2023-04-24T09:58:36;3.35;;;0.30;;
71963;SDS011;59834;52.124;5.422;2023-04-24T10:01:04;1.80;;;0.28;;
71963;SDS011;59834;52.124;5.422;2023-04-24T10:03:31;5.82;;;0.50;;
71963;SDS011;59834;52.124;5.422;2023-04-24T10:06:00;3.78;;;0.90;;
71963;SDS011;59834;52.124;5.422;2023-04-24T10:08:34;10.63;;;0.80;;
71963;SDS011;59834;52.124;5.422;2023-04-24T10:11:02;6.07;;;0.20;;
71963;SDS011;59834;52.124;5.422;2023-04-24T10:13:29;3.42;;;0.52;;
71963;SDS011;59834;52.124;5.422;2023-04-24T10:15:56;7.05;;;0.38;;
71963;SDS011;59834;52.124;5.422;2023-04-24T10:18:26;2.55;;;0.30;;
71963;SDS011;59834;52.124;5.422;2023-04-24T10:20:53;4.22;;;0.40;;
71963;SDS011;59834;52.124;5.422;2023-04-24T10:23:21;4.55;;;0.32;;
71963;SDS011;59834;52.124;5.422;2023-04-24T10:25:50;7.18;;;0.30;;
71963;SDS011;59834;52.124;5.422;2023-04-24T10:28:17;5.28;;;0.57;;
71963;SDS011;59834;52.124;5.422;2023-04-24T10:30:45;7.70;;;0.30;;
71963;SDS011;59834;52.124;5.422;2023-04-24T10:33:11;4.55;;;0.30;;
71963;SDS011;59834;52.124;5.422;2023-04-24T10:35:40;6.13;;;0.47;;
71963;SDS011;59834;52.124;5.422;2023-04-24T10:38:13;3.63;;;0.20;;
71963;SDS011;59834;52.124;5.422;2023-04-24T10:40:42;2.15;;;0.20;;
71963;SDS011;59834;52.124;5.422;2023-04-24T10:43:10;1.13;;;0.10;;
71963;SDS011;59834;52.124;5.422;2023-04-24T10:45:38;0.90;;;0.10;;
71963;SDS011;59834;52.124;5.422;2023-04-24T10:48:06;1.85;;;0.13;;
71963;SDS011;59834;52.124;5.422;2023-04-24T10:50:44;2.03;;;0.10;;
71963;SDS011;59834;52.124;5.422;2023-04-24T10:53:15;0.50;;;0.10;;
71963;SDS011;59834;52.124;5.422;2023-04-24T10:58:10;1.52;;;0.10;;
71963;SDS011;59834;52.124;5.422;2023-04-24T11:00:38;4.63;;;0.10;;
71963;SDS011;59834;52.124;5.422;2023-04-24T11:03:23;5.43;;;0.10;;
71963;SDS011;59834;52.124;5.422;2023-04-24T11:05:52;5.10;;;0.35;;
71963;SDS011;59834;52.124;5.422;2023-04-24T11:08:40;4.28;;;0.10;;
71963;SDS011;59834;52.124;5.422;2023-04-24T11:11:14;3.80;;;0.30;;
71963;SDS011;59834;52.124;5.422;2023-04-24T11:16:21;1.55;;;0.10;;
71963;SDS011;59834;52.124;5.422;2023-04-24T11:24:22;2.80;;;0.10;;
71963;SDS011;59834;52.124;5.422;2023-04-24T11:29:46;1.38;;;0.10;;
71963;SDS011;59834;52.124;5.422;2023-04-24T11:32:26;1.85;;;0.17;;
71963;SDS011;59834;52.124;5.422;2023-04-24T11:34:56;1.95;;;0.10;;
71963;SDS011;59834;52.124;5.422;2023-04-24T11:37:28;3.00;;;0.10;;
71963;SDS011;59834;52.124;5.422;2023-04-24T11:42:52;4.57;;;0.10;;
71963;SDS011;59834;52.124;5.422;2023-04-24T11:45:22;4.68;;;0.20;;
71963;SDS011;59834;52.124;5.422;2023-04-24T11:47:56;2.63;;;0.10;;
71963;SDS011;59834;52.124;5.422;2023-04-24T11:50:28;6.38;;;0.35;;
71963;SDS011;59834;52.124;5.422;2023-04-24T11:52:55;1.75;;;0.00;;
71963;SDS011;59834;52.124;5.422;2023-04-24T11:55:26;2.55;;;0.10;;
71963;SDS011;59834;52.124;5.422;2023-04-24T11:57:59;1.95;;;0.10;;
71963;SDS011;59834;52.124;5.422;2023-04-24T12:00:27;1.67;;;0.10;;
71963;SDS011;59834;52.124;5.422;2023-04-24T12:03:08;1.60;;;0.10;;
71963;SDS011;59834;52.124;5.422;2023-04-24T12:05:36;0.88;;;0.00;;
71963;SDS011;59834;52.124;5.422;2023-04-24T12:08:05;0.73;;;0.00;;
71963;SDS011;59834;52.124;5.422;2023-04-24T12:10:32;2.95;;;0.10;;
71963;SDS011;59834;52.124;5.422;2023-04-24T12:13:01;2.22;;;0.13;;
71963;SDS011;59834;52.124;5.422;2023-04-24T12:15:27;3.70;;;0.10;;
71963;SDS011;59834;52.124;5.422;2023-04-24T12:17:55;0.60;;;0.03;;
71963;SDS011;59834;52.124;5.422;2023-04-24T12:20:26;1.15;;;0.25;;
71963;SDS011;59834;52.124;5.422;2023-04-24T12:22:56;2.58;;;0.13;;
71963;SDS011;59834;52.124;5.422;2023-04-24T12:25:26;2.33;;;0.10;;
71963;SDS011;59834;52.124;5.422;2023-04-24T12:28:08;2.95;;;0.10;;
71963;SDS011;59834;52.124;5.422;2023-04-24T12:30:40;2.15;;;0.10;;
71963;SDS011;59834;52.124;5.422;2023-04-24T12:33:10;3.83;;;0.10;;
71963;SDS011;59834;52.124;5.422;2023-04-24T12:35:39;5.70;;;0.20;;
71963;SDS011;59834;52.124;5.422;2023-04-24T12:38:08;6.28;;;0.20;;
71963;SDS011;59834;52.124;5.422;2023-04-24T12:40:36;2.60;;;0.10;;
71963;SDS011;59834;52.124;5.422;2023-04-24T12:43:25;3.40;;;0.40;;
71963;SDS011;59834;52.124;5.422;2023-04-24T12:45:55;5.18;;;0.20;;
71963;SDS011;59834;52.124;5.422;2023-04-24T12:48:22;2.58;;;0.20;;
71963;SDS011;59834;52.124;5.422;2023-04-24T12:50:51;1.35;;;0.20;;
71963;SDS011;59834;52.124;5.422;2023-04-24T12:53:18;2.10;;;0.20;;
71963;SDS011;59834;52.124;5.422;2023-04-24T12:55:45;4.93;;;0.30;;
71963;SDS011;59834;52.124;5.422;2023-04-24T12:58:16;5.55;;;0.40;;
71963;SDS011;59834;52.124;5.422;2023-04-24T13:00:43;3.40;;;0.30;;
71963;SDS011;59834;52.124;5.422;2023-04-24T13:03:12;7.03;;;1.10;;
71963;SDS011;59834;52.124;5.422;2023-04-24T13:05:41;10.27;;;1.75;;
71963;SDS011;59834;52.124;5.422;2023-04-24T13:08:09;8.20;;;1.38;;
71963;SDS011;59834;52.124;5.422;2023-04-24T13:10:38;4.85;;;0.25;;
71963;SDS011;59834;52.124;5.422;2023-04-24T13:13:06;3.97;;;0.35;;
71963;SDS011;59834;52.124;5.422;2023-04-24T13:15:33;12.45;;;1.42;;
71963;SDS011;59834;52.124;5.422;2023-04-24T13:18:00;6.03;;;0.30;;
71963;SDS011;59834;52.124;5.422;2023-04-24T13:20:27;6.90;;;1.20;;
71963;SDS011;59834;52.124;5.422;2023-04-24T13:22:57;7.57;;;0.88;;
71963;SDS011;59834;52.124;5.422;2023-04-24T13:25:25;3.22;;;0.32;;
71963;SDS011;59834;52.124;5.422;2023-04-24T13:27:52;9.98;;;0.57;;
71963;SDS011;59834;52.124;5.422;2023-04-24T13:30:19;4.35;;;0.60;;
71963;SDS011;59834;52.124;5.422;2023-04-24T13:32:46;6.55;;;0.50;;
71963;SDS011;59834;52.124;5.422;2023-04-24T13:35:12;4.05;;;0.32;;
71963;SDS011;59834;52.124;5.422;2023-04-24T13:37:42;5.95;;;0.50;;
71963;SDS011;59834;52.124;5.422;2023-04-24T13:40:18;7.55;;;0.52;;
71963;SDS011;59834;52.124;5.422;2023-04-24T13:42:47;3.95;;;0.60;;
71963;SDS011;59834;52.124;5.422;2023-04-24T13:45:16;6.68;;;0.50;;
71963;SDS011;59834;52.124;5.422;2023-04-24T13:55:57;7.82;;;0.75;;
71963;SDS011;59834;52.124;5.422;2023-04-24T13:58:29;5.18;;;0.55;;
71963;SDS011;59834;52.124;5.422;2023-04-24T14:00:58;6.47;;;0.45;;
71963;SDS011;59834;52.124;5.422;2023-04-24T14:03:25;8.23;;;1.00;;
71963;SDS011;59834;52.124;5.422;2023-04-24T14:05:52;10.65;;;0.63;;
71963;SDS011;59834;52.124;5.422;2023-04-24T14:08:19;6.72;;;1.50;;
71963;SDS011;59834;52.124;5.422;2023-04-24T14:10:49;7.45;;;0.57;;
71963;SDS011;59834;52.124;5.422;2023-04-24T14:13:19;7.35;;;0.88;;
71963;SDS011;59834;52.124;5.422;2023-04-24T14:15:47;8.93;;;0.80;;
71963;SDS011;59834;52.124;5.422;2023-04-24T14:18:15;4.75;;;0.95;;
71963;SDS011;59834;52.124;5.422;2023-04-24T14:20:42;7.07;;;0.40;;
71963;SDS011;59834;52.124;5.422;2023-04-24T14:23:08;6.75;;;0.98;;
71963;SDS011;59834;52.124;5.422;2023-04-24T14:25:46;5.30;;;0.40;;
71963;SDS011;59834;52.124;5.422;2023-04-24T14:28:18;4.97;;;0.63;;
71963;SDS011;59834;52.124;5.422;2023-04-24T14:30:45;5.40;;;0.65;;
71963;SDS011;59834;52.124;5.422;2023-04-24T14:33:13;7.63;;;0.80;;
71963;SDS011;59834;52.124;5.422;2023-04-24T14:35:48;4.10;;;0.55;;
71963;SDS011;59834;52.124;5.422;2023-04-24T14:38:33;7.97;;;1.15;;
71963;SDS011;59834;52.124;5.422;2023-04-24T14:41:08;4.07;;;0.43;;
71963;SDS011;59834;52.124;5.422;2023-04-24T14:43:51;6.18;;;0.47;;
71963;SDS011;59834;52.124;5.422;2023-04-24T14:46:20;6.50;;;1.25;;
71963;SDS011;59834;52.124;5.422;2023-04-24T14:48:47;7.13;;;0.70;;
71963;SDS011;59834;52.124;5.422;2023-04-24T14:51:17;5.65;;;1.10;;
71963;SDS011;59834;52.124;5.422;2023-04-24T14:53:46;6.97;;;1.35;;
71963;SDS011;59834;52.124;5.422;2023-04-24T14:56:14;7.00;;;0.50;;
71963;SDS011;59834;52.124;5.422;2023-04-24T14:58:55;9.85;;;0.80;;
71963;SDS011;59834;52.124;5.422;2023-04-24T15:01:22;8.77;;;1.13;;
71963;SDS011;59834;52.124;5.422;2023-04-24T15:03:59;11.13;;;0.75;;
71963;SDS011;59834;52.124;5.422;2023-04-24T15:06:26;9.33;;;1.03;;
71963;SDS011;59834;52.124;5.422;2023-04-24T15:08:54;7.55;;;0.65;;
71963;SDS011;59834;52.124;5.422;2023-04-24T15:11:20;6.40;;;0.65;;
71963;SDS011;59834;52.124;5.422;2023-04-24T15:13:50;7.78;;;0.88;;
71963;SDS011;59834;52.124;5.422;2023-04-24T15:16:17;5.78;;;0.77;;
71963;SDS011;59834;52.124;5.422;2023-04-24T15:18:46;5.77;;;0.60;;
71963;SDS011;59834;52.124;5.422;2023-04-24T15:21:19;8.40;;;0.73;;
71963;SDS011;59834;52.124;5.422;2023-04-24T15:23:46;6.63;;;0.65;;